createdAt,value
2022-08-14T00:01:13.638Z,17.45
2022-08-14T00:06:27.736Z,17.44
2022-08-14T00:11:32.211Z,17.33
2022-08-14T00:16:40.364Z,17.18
2022-08-14T00:21:44.494Z,17.05
2022-08-14T00:26:47.331Z,17.03
2022-08-14T00:31:56.610Z,16.96
2022-08-14T00:36:59.398Z,16.78
2022-08-14T00:42:02.233Z,16.72
2022-08-14T00:47:10.637Z,16.65
2022-08-14T00:52:18.321Z,16.60
2022-08-14T00:57:25.778Z,16.49
2022-08-14T01:02:31.884Z,16.44
2022-08-14T01:07:38.953Z,16.40
2022-08-14T01:12:54.471Z,16.37
2022-08-14T01:18:19.981Z,16.36
2022-08-14T01:23:23.860Z,16.27
2022-08-14T01:28:47.158Z,16.24
2022-08-14T01:33:59.721Z,16.17
2022-08-14T01:39:12.915Z,16.13
2022-08-14T01:44:33.079Z,16.10
2022-08-14T01:49:45.781Z,16.06
2022-08-14T01:54:58.297Z,16.06
2022-08-14T02:00:00.960Z,16.06
2022-08-14T02:05:08.604Z,16.08
2022-08-14T02:10:13.029Z,16.27
2022-08-14T02:15:21.895Z,17.27
2022-08-14T02:20:24.309Z,17.69
2022-08-14T02:25:30.026Z,18.36
2022-08-14T02:30:34.843Z,19.02
2022-08-14T02:35:43.247Z,19.46
2022-08-14T02:40:45.662Z,20.60
2022-08-14T02:45:48.878Z,22.55
2022-08-14T02:50:53.533Z,24.72
2022-08-14T02:55:56.486Z,25.34
2022-08-14T03:01:07.157Z,23.73
2022-08-14T03:06:10.396Z,22.33
2022-08-14T03:11:13.225Z,21.53
2022-08-14T03:16:26.691Z,21.57
2022-08-14T03:21:31.535Z,21.67
2022-08-14T03:26:36.977Z,21.49
2022-08-14T03:31:43.294Z,21.76
2022-08-14T03:37:37.401Z,22.25
2022-08-14T03:42:19.458Z,22.55
2022-08-14T03:47:22.092Z,22.85
2022-08-14T03:52:48.140Z,22.76
2022-08-14T03:58:00.483Z,22.40
2022-08-14T04:03:06.536Z,22.47
2022-08-14T04:08:29.845Z,22.58
2022-08-14T04:13:34.046Z,22.91
2022-08-14T04:18:42.353Z,22.84
2022-08-14T04:23:49.084Z,22.87
2022-08-14T04:29:13.915Z,23.08
2022-08-14T04:34:27.154Z,23.14
2022-08-14T04:39:57.043Z,23.36
2022-08-14T04:45:00.689Z,23.61
2022-08-14T04:50:06.042Z,23.95
2022-08-14T04:55:08.688Z,24.20
2022-08-14T05:00:16.037Z,24.41
2022-08-14T05:05:21.151Z,24.62
2022-08-14T05:10:26.194Z,24.66
2022-08-14T05:15:36.578Z,24.89
2022-08-14T05:21:56.396Z,25.06
2022-08-14T05:26:18.209Z,25.28
2022-08-14T05:31:21.202Z,25.46
2022-08-14T05:36:25.107Z,25.41
2022-08-14T05:41:33.668Z,25.31
2022-08-14T05:46:50.691Z,25.42
2022-08-14T05:51:53.068Z,25.57
2022-08-14T05:56:55.949Z,25.55
2022-08-14T06:01:58.341Z,25.72
2022-08-14T06:07:00.809Z,26.12
2022-08-14T06:12:04.398Z,26.17
2022-08-14T06:17:07.791Z,25.87
2022-08-14T06:22:10.312Z,26.22
2022-08-14T06:27:15.219Z,26.49
2022-08-14T06:32:37.763Z,26.29
2022-08-14T06:37:44.155Z,26.41
2022-08-14T06:42:49.513Z,26.71
2022-08-14T06:47:52.315Z,26.86
2022-08-14T06:52:55.823Z,26.77
2022-08-14T06:57:58.265Z,26.93
2022-08-14T07:03:19.440Z,27.30
2022-08-14T07:08:28.719Z,27.51
2022-08-14T07:13:32.625Z,27.75
2022-08-14T07:18:35.969Z,27.89
2022-08-14T07:23:39.981Z,27.94
2022-08-14T07:28:43.507Z,28.05
2022-08-14T07:33:50.057Z,28.26
2022-08-14T07:38:53.403Z,27.98
2022-08-14T07:43:57.799Z,28.04
2022-08-14T07:49:00.305Z,27.55
2022-08-14T07:54:04.422Z,27.68
2022-08-14T07:59:15.318Z,28.24
2022-08-14T08:04:24.522Z,28.61
2022-08-14T08:09:32.496Z,28.96
2022-08-14T08:14:55.226Z,28.91
2022-08-14T08:19:57.966Z,29.43
2022-08-14T08:25:00.774Z,29.63
2022-08-14T08:30:10.266Z,29.69
2022-08-14T08:35:18.562Z,29.39
2022-08-14T08:40:31.420Z,29.29
2022-08-14T08:45:36.256Z,28.58
2022-08-14T08:55:44.662Z,29.86
2022-08-14T09:00:54.118Z,30.70
2022-08-14T09:05:58.750Z,31.08
2022-08-14T09:11:02.783Z,30.88
2022-08-14T09:16:24.800Z,31.18
2022-08-14T09:21:31.348Z,31.10
2022-08-14T09:26:34.795Z,31.04
2022-08-14T09:31:42.978Z,31.05
2022-08-14T09:37:11.268Z,31.08
2022-08-14T09:42:33.626Z,31.17
2022-08-14T09:48:04.117Z,31.56
2022-08-14T09:53:17.733Z,31.60
2022-08-14T09:58:22.850Z,31.77
2022-08-14T10:03:33.925Z,31.90
2022-08-14T10:08:44.231Z,31.93
2022-08-14T10:13:55.657Z,31.73
2022-08-14T10:19:09.258Z,31.90
2022-08-14T10:24:23.360Z,32.21
2022-08-14T10:29:34.756Z,31.57
2022-08-14T10:34:40.985Z,31.27
2022-08-14T10:40:01.320Z,31.35
2022-08-14T10:45:21.478Z,31.02
2022-08-14T10:50:31.877Z,30.97
2022-08-14T10:55:45.410Z,30.75
2022-08-14T11:00:56.710Z,30.74
2022-08-14T11:06:01.330Z,30.50
2022-08-14T11:11:05.599Z,30.28
2022-08-14T11:16:08.982Z,30.15
2022-08-14T11:21:15.174Z,30.20
2022-08-14T11:26:19.179Z,30.19
2022-08-14T11:31:23.985Z,30.12
2022-08-14T11:36:57.327Z,29.93
2022-08-14T11:41:56.037Z,29.80
2022-08-14T11:46:58.608Z,29.74
2022-08-14T11:52:01.439Z,28.43
2022-08-14T11:57:05.986Z,28.65
2022-08-14T12:02:09.274Z,29.01
2022-08-14T12:07:32.120Z,29.05
2022-08-14T12:12:38.135Z,29.19
2022-08-14T12:17:49.679Z,29.57
2022-08-14T12:22:54.973Z,29.96
2022-08-14T12:28:01.520Z,29.79
2022-08-14T12:33:05.628Z,29.67
2022-08-14T12:38:20.942Z,29.35
2022-08-14T12:43:24.800Z,29.20
2022-08-14T12:48:31.656Z,29.35
2022-08-14T12:53:39.980Z,29.79
2022-08-14T12:58:51.601Z,29.62
2022-08-14T13:04:13.193Z,29.32
2022-08-14T13:09:16.437Z,29.32
2022-08-14T13:14:29.621Z,29.31
2022-08-14T13:19:33.067Z,29.50
2022-08-14T13:24:37.802Z,29.66
2022-08-14T13:29:47.156Z,29.42
2022-08-14T13:34:49.943Z,29.07
2022-08-14T13:39:57.100Z,29.15
2022-08-14T13:45:01.576Z,29.52
2022-08-14T13:50:07.704Z,29.65
2022-08-14T13:55:13.528Z,29.64
2022-08-14T14:00:17.849Z,29.60
2022-08-14T14:05:21.077Z,29.46
2022-08-14T14:10:28.207Z,29.26
2022-08-14T14:15:48.382Z,29.06
2022-08-14T14:20:53.987Z,28.73
2022-08-14T14:25:57.436Z,28.43
2022-08-14T14:31:05.840Z,28.13
2022-08-14T14:36:11.071Z,27.99
2022-08-14T14:41:15.270Z,27.86
2022-08-14T14:46:18.834Z,27.75
2022-08-14T14:51:22.348Z,27.80
2022-08-14T14:56:50.514Z,27.82
2022-08-14T15:01:50.029Z,27.89
2022-08-14T15:06:53.294Z,27.69
2022-08-14T15:11:57.813Z,27.49
2022-08-14T15:17:01.007Z,27.29
2022-08-14T15:22:04.274Z,27.09
2022-08-14T15:27:06.944Z,26.90
2022-08-14T15:32:10.794Z,26.69
2022-08-14T15:37:16.531Z,26.51
2022-08-14T15:42:20.609Z,26.47
2022-08-14T15:47:28.449Z,26.45
2022-08-14T15:52:35.272Z,26.34
2022-08-14T15:57:38.304Z,26.17
2022-08-14T16:02:40.790Z,26.14
2022-08-14T16:07:44.972Z,26.05
2022-08-14T16:12:48.030Z,25.95
2022-08-14T16:17:51.556Z,25.77
2022-08-14T16:23:10.418Z,25.69
2022-08-14T16:28:28.670Z,25.50
2022-08-14T16:33:58.766Z,25.30
2022-08-14T16:38:56.736Z,25.04
2022-08-14T16:44:21.561Z,24.83
2022-08-14T16:50:03.076Z,24.55
2022-08-14T16:54:51.926Z,24.28
2022-08-14T16:59:57.610Z,24.05
2022-08-14T17:05:20.895Z,23.88
2022-08-14T17:10:28.026Z,23.67
2022-08-14T17:15:31.951Z,23.51
2022-08-14T17:21:00.474Z,23.40
2022-08-14T17:25:57.492Z,23.26
2022-08-14T17:36:25.241Z,22.93
2022-08-14T17:41:32.887Z,22.84
2022-08-14T17:46:43.545Z,22.76
2022-08-14T17:51:56.693Z,22.65
2022-08-14T17:57:02.785Z,22.59
2022-08-14T18:02:16.787Z,22.54
2022-08-14T18:07:59.970Z,22.50
2022-08-14T18:12:47.485Z,22.44
2022-08-14T18:17:52.866Z,22.34
2022-08-14T18:22:56.704Z,22.14
2022-08-14T18:28:01.669Z,21.96
2022-08-14T18:33:15.696Z,21.88
2022-08-14T18:38:25.829Z,21.88
2022-08-14T18:43:45.879Z,21.84
2022-08-14T18:49:15.866Z,21.77
2022-08-14T18:54:29.895Z,21.64
2022-08-14T18:59:40.250Z,21.50
2022-08-14T19:04:44.820Z,21.45
2022-08-14T19:09:59.165Z,21.35
2022-08-14T19:15:07.704Z,21.30
2022-08-14T19:20:11.751Z,21.30
2022-08-14T19:25:34.080Z,21.14
2022-08-14T19:30:37.143Z,21.01
2022-08-14T19:35:48.607Z,20.99
2022-08-14T19:40:53.335Z,20.98
2022-08-14T19:45:56.277Z,20.91
2022-08-14T19:51:02.477Z,20.81
2022-08-14T19:56:05.228Z,20.76
2022-08-14T20:01:08.778Z,20.81
2022-08-14T20:06:12.321Z,20.82
2022-08-14T20:12:00.251Z,20.77
2022-08-14T20:17:06.392Z,20.69
2022-08-14T20:22:36.565Z,20.60
2022-08-14T20:27:44.283Z,20.50
2022-08-14T20:32:48.277Z,20.37
2022-08-14T20:38:30.694Z,20.27
2022-08-14T20:43:44.352Z,20.24
2022-08-14T20:49:02.511Z,20.22
2022-08-14T20:54:14.476Z,20.27
2022-08-14T20:59:28.952Z,20.35
2022-08-14T21:04:36.064Z,20.34
2022-08-14T21:10:05.441Z,20.32
2022-08-14T21:15:20.519Z,20.34
2022-08-14T21:20:29.007Z,20.25
2022-08-14T21:25:32.116Z,20.15
2022-08-14T21:30:51.469Z,20.15
2022-08-14T21:35:55.965Z,20.07
2022-08-14T21:40:58.479Z,19.98
2022-08-14T21:46:01.747Z,19.91
2022-08-14T21:51:54.072Z,19.85
2022-08-14T21:56:38.961Z,19.86
2022-08-14T22:02:01.780Z,19.84
2022-08-14T22:07:06.892Z,19.80
2022-08-14T22:12:10.322Z,19.72
2022-08-14T22:17:17.112Z,19.67
2022-08-14T22:22:20.137Z,19.58
2022-08-14T22:27:22.732Z,19.45
2022-08-14T22:32:35.304Z,19.42
2022-08-14T22:38:32.594Z,19.38
2022-08-14T22:43:11.846Z,19.43
2022-08-14T22:48:18.854Z,19.38
2022-08-14T22:53:22.017Z,19.32
2022-08-14T22:58:31.392Z,19.26
2022-08-14T23:03:39.001Z,19.18
2022-08-14T23:08:57.536Z,19.09
2022-08-14T23:14:05.682Z,19.07
2022-08-14T23:19:15.068Z,19.03
2022-08-14T23:24:26.872Z,19.01
2022-08-14T23:29:31.355Z,18.92
2022-08-14T23:34:39.502Z,18.84
2022-08-14T23:39:50.740Z,18.79
2022-08-14T23:44:55.812Z,18.76
2022-08-14T23:50:01.242Z,18.74
2022-08-14T23:55:11.165Z,18.67
